Airfield :
LOGIN :

Register | Disclaimer

   EN    FR    IT 

 










Legend :    VFR   Marginal VFR   IFR   Intensive IFR   Very Intensive IFR
Visi :
Ceiling :
>= 8 km
>= 3000ft
5 to 8 km
1000 to 3000 ft
1500m to 5 km
500 to 1000 ft
800 to 1500m
200 to 500 ft
< 800m
< 200 ft
Symbols :   Thunderstorms  Fog  Heavy snow  Heavy precipitations  Wind > 20 kt
SIGMETs :     Misc.  Thunderstorms  Icing  Turbulence  Mountain Waves  Volcanic Ashes






- Airport Elevation : 325 ft
- IATA code : BES


LFRB - Brest

CURRENT METAR :
  • 062000Z AUTO 06007KT CAVOK 03/M02 Q1036 NOSIG

EXPIRED METARs :
  • 061930Z AUTO 06010KT CAVOK 03/M02 Q1036 NOSIG
  • 061900Z AUTO 06010KT CAVOK 05/M03 Q1036 NOSIG
  • 061830Z AUTO 07007KT CAVOK 05/M03 Q1036 NOSIG
  • 061800Z AUTO 05006KT CAVOK 05/M02 Q1036 NOSIG
  • 061730Z AUTO 04006KT CAVOK 06/M02 Q1036 NOSIG

TAF TAF LFRB
Valid from the 06 at 18:00 until the 08 at 00:00 UTC


061700Z 0618/0724 06005KT CAVOK
BECMG 0706/0709 06012KT
PROB30
TEMPO 0709/0720 06015G25KT
ATIS : +33 2 98 32 02 71



MET'MAP, your aeronautical weather chart ! - Copyright ORBIFLY December 2007 - Disclaimer

ORBIFLY MET'MAP TEAM :

Programming & Development : Alexandra Zaïnal
Original concept : Baudouin d'Aumeries
Technical & hardware support : Manuel Goepfert
Assistance : Marc-Olivier Méhu




SOURCES & CREDITS :

   NOAA